Time;durP1;ratioP1;P1;durP2;ratioP2;P2;SDS_P1;SDS_P2;PMS_P1;PMS_P2;Temp;Humidity;BMP_temperature;BMP_pressure;BME280_temperature;BME280_humidity;BME280_pressure;Samples;Min_cycle;Max_cycle;Signal;HPM_P1;HPM_P2
2022/10/27 00:01:43;;;;;;;13.65;5.45;;;;;;;-143.48;92.43;78991.91;5013330;28;20026;-71
2022/10/27 00:04:08;;;;;;;11.63;5.10;;;;;;;-143.48;92.62;79005.78;5013287;28;20028;-71
2022/10/27 00:06:34;;;;;;;15.18;5.60;;;;;;;-143.48;92.43;78980.00;5028484;28;20470;-71
2022/10/27 00:08:59;;;;;;;13.13;5.20;;;;;;;-143.48;92.38;78991.91;5013370;28;20057;-71
2022/10/27 00:11:24;;;;;;;13.95;5.28;;;;;;;-143.48;92.56;78993.91;5013149;28;20030;-71
2022/10/27 00:13:50;;;;;;;17.15;5.22;;;;;;;-143.48;92.97;78997.88;5012021;28;20465;-71
2022/10/27 00:16:15;;;;;;;15.90;5.10;;;;;;;-143.48;93.15;79001.81;5013311;28;20049;-71
2022/10/27 00:18:42;;;;;;;11.27;5.35;;;;;;;-143.48;93.50;78999.84;5013439;28;20544;-71
2022/10/27 00:21:14;;;;;;;11.10;5.50;;;;;;;-143.48;93.25;78995.88;5013046;28;20026;-71
2022/10/27 00:23:40;;;;;;;14.10;5.18;;;;;;;-143.48;93.08;78999.84;5013236;28;20034;-71
2022/10/27 00:26:09;;;;;;;17.70;5.70;;;;;;;-143.48;93.32;79005.78;5013130;28;20022;-71
2022/10/27 00:28:34;;;;;;;12.88;5.57;;;;;;;-143.48;93.37;79003.81;5013085;28;20034;-71
2022/10/27 00:31:06;;;;;;;14.00;5.72;;;;;;;-143.48;93.27;79007.78;5013043;28;20037;-71
2022/10/27 00:33:33;;;;;;;14.30;5.93;;;;;;;-143.48;93.87;79013.72;5013026;28;20026;-71
2022/10/27 00:36:10;;;;;;;14.32;5.80;;;;;;;-143.48;93.74;79021.66;5013193;28;20505;-71
2022/10/27 00:38:36;;;;;;;13.82;5.95;;;;;;;-143.48;93.85;79023.66;5013176;28;20029;-71
2022/10/27 00:41:03;;;;;;;11.32;5.65;;;;;;;-143.48;94.17;79025.63;5013106;28;20393;-71
2022/10/27 00:43:34;;;;;;;11.75;5.70;;;;;;;-143.48;94.00;79021.66;5013068;28;20116;-71
2022/10/27 00:46:24;;;;;;;16.13;6.00;;;;;;;-143.48;93.88;79025.63;5011699;28;20440;-71
2022/10/27 00:48:54;;;;;;;15.65;6.18;;;;;;;-143.48;93.50;79031.59;5013031;28;20032;-71
2022/10/27 00:51:19;;;;;;;16.65;6.10;;;;;;;-143.48;93.66;79037.53;5011565;28;20026;-71
2022/10/27 00:53:46;;;;;;;15.63;5.90;;;;;;;-143.48;93.74;79035.56;5012749;28;20096;-71
2022/10/27 00:56:12;;;;;;;14.45;6.50;;;;;;;-143.48;93.58;79039.53;5014904;28;20029;-71
2022/10/27 00:58:39;;;;;;;11.88;5.60;;;;;;;-143.48;93.41;79047.44;5016389;28;20026;-71
2022/10/27 01:01:05;;;;;;;15.77;6.18;;;;;;;-143.48;93.79;79047.44;5031652;28;20120;-71
2022/10/27 01:03:31;;;;;;;12.55;6.15;;;;;;;-143.48;93.54;79051.41;5015171;28;20053;-71
2022/10/27 01:05:57;;;;;;;17.80;6.25;;;;;;;-143.48;93.57;79053.41;5016353;28;20022;-71
2022/10/27 01:08:24;;;;;;;18.25;5.97;;;;;;;-143.48;93.59;79053.41;5016333;28;20080;-71
2022/10/27 01:10:50;;;;;;;14.48;6.30;;;;;;;-143.48;93.61;79051.41;5016254;28;20018;-71
2022/10/27 01:13:17;;;;;;;14.88;5.78;;;;;;;-143.48;93.13;79059.34;5016254;28;20030;-71
2022/10/27 01:16:00;;;;;;;13.85;6.30;;;;;;;-143.48;93.30;79063.31;5016130;28;20057;-71
2022/10/27 01:18:37;;;;;;;12.02;5.97;;;;;;;-143.48;93.64;79067.28;5015979;28;20061;-71
2022/10/27 01:21:44;;;;;;;17.77;6.00;;;;;;;-143.48;93.55;79073.25;5015954;28;20025;-71
2022/10/27 01:24:40;;;;;;;13.02;5.82;;;;;;;-143.48;93.60;79073.25;5014817;28;20034;-71
2022/10/27 01:27:15;;;;;;;11.38;5.82;;;;;;;-143.48;93.45;79079.19;5014586;28;20030;-71
2022/10/27 01:30:08;;;;;;;16.60;5.50;;;;;;;-143.48;93.61;79073.25;5015845;28;20498;-71
2022/10/27 01:32:44;;;;;;;17.23;6.35;;;;;;;-143.48;93.65;79073.25;5015640;28;20084;-71
2022/10/27 01:35:35;;;;;;;13.52;6.05;;;;;;;-143.48;93.40;79081.16;5015933;28;20029;-71
2022/10/27 01:38:11;;;;;;;12.13;5.90;;;;;;;-143.48;93.40;79089.09;5015727;28;20477;-72
2022/10/27 01:40:48;;;;;;;11.70;5.65;;;;;;;-143.48;93.51;79091.09;5015761;28;20471;-70
2022/10/27 01:43:22;;;;;;;11.82;5.70;;;;;;;-143.48;93.32;79093.06;5015586;28;20553;-72
2022/10/27 01:45:47;;;;;;;13.63;6.05;;;;;;;-143.48;93.89;79091.09;5015619;28;20402;-71
2022/10/27 01:48:14;;;;;;;11.45;5.57;;;;;;;-143.48;93.92;79099.03;5015658;28;20106;-71
2022/10/27 01:50:41;;;;;;;10.63;5.63;;;;;;;-143.48;93.89;79093.06;5030680;28;20113;-72
2022/10/27 01:53:07;;;;;;;10.48;5.68;;;;;;;-143.48;93.94;79093.06;5015158;28;20036;-71
2022/10/27 01:55:46;;;;;;;14.48;5.65;;;;;;;-143.48;93.83;79085.13;5013918;28;20034;-71
2022/10/27 01:58:35;;;;;;;18.60;5.60;;;;;;;-143.48;93.64;79093.06;5015285;28;20116;-71
2022/10/27 02:01:39;;;;;;;11.30;6.00;;;;;;;-143.48;93.69;79091.09;5015309;28;20516;-71
2022/10/27 02:04:22;;;;;;;;;;;;;;;-143.48;93.74;79087.13;4993994;28;20092;-71
2022/10/27 02:07:09;;;;;;;16.77;5.57;;;;;;;-143.48;93.84;79095.06;5012844;28;19917;-71
2022/10/27 02:09:43;;;;;;;14.40;5.40;;;;;;;-143.48;94.09;79077.19;5015306;28;20046;-71
2022/10/27 02:12:19;;;;;;;14.07;5.50;;;;;;;-143.48;93.84;79081.16;5019040;28;20029;-73
2022/10/27 02:14:46;;;;;;;11.70;5.15;;;;;;;-143.48;93.71;79075.22;5015426;28;20057;-73
2022/10/27 02:17:12;;;;;;;13.30;5.13;;;;;;;-143.48;93.68;79075.22;5015002;28;20030;-71
2022/10/27 02:19:41;;;;;;;13.88;5.40;;;;;;;-143.48;93.66;79079.19;5031448;28;20049;-72
2022/10/27 02:22:08;;;;;;;24.27;5.68;;;;;;;-143.48;93.50;79077.19;5013857;28;20366;-72
2022/10/27 02:24:34;;;;;;;15.80;5.47;;;;;;;-143.48;93.76;79079.19;5014808;28;20030;-71
2022/10/27 02:27:16;;;;;;;10.68;5.82;;;;;;;-143.48;93.79;79067.28;5014852;28;20068;-71
2022/10/27 02:29:46;;;;;;;14.07;5.10;;;;;;;-143.48;93.69;79071.25;5014783;28;20385;-73
2022/10/27 02:32:17;;;;;;;11.82;5.22;;;;;;;-143.48;93.64;79071.25;5014789;28;20076;-71
2022/10/27 02:34:44;;;;;;;19.20;5.30;;;;;;;-143.48;93.42;79071.25;5029794;28;20495;-72
2022/10/27 02:37:16;;;;;;;11.52;5.30;;;;;;;-143.48;93.58;79069.28;5014586;28;20029;-72
2022/10/27 02:39:41;;;;;;;18.25;5.30;;;;;;;-143.48;93.50;79071.25;5029774;28;20037;-71
2022/10/27 02:42:06;;;;;;;10.50;5.03;;;;;;;-143.48;93.65;79081.16;5014538;28;20405;-72
2022/10/27 02:44:31;;;;;;;9.80;5.50;;;;;;;-143.48;93.44;79063.31;5013346;28;20113;-71
2022/10/27 02:46:57;;;;;;;14.48;5.30;;;;;;;-143.48;93.37;79061.34;5014390;28;20026;-72
2022/10/27 02:49:22;;;;;;;12.55;5.10;;;;;;;-143.48;93.72;79067.28;5029575;28;20111;-71
2022/10/27 02:51:47;;;;;;;9.93;5.00;;;;;;;-143.48;93.46;79055.38;5014344;28;20025;-72
2022/10/27 02:54:12;;;;;;;11.75;4.82;;;;;;;-143.48;93.38;79055.38;5014009;28;20061;-72
2022/10/27 02:56:38;;;;;;;15.75;5.55;;;;;;;-143.48;93.21;79055.38;5029492;28;20026;-72
2022/10/27 02:59:03;;;;;;;12.77;5.50;;;;;;;-143.48;93.45;79061.34;5014279;28;20030;-71
2022/10/27 03:01:28;;;;;;;14.27;5.65;;;;;;;-143.48;93.75;79063.31;5012859;28;20389;-71
2022/10/27 03:03:53;;;;;;;13.88;5.50;;;;;;;-143.48;93.53;79059.34;5014135;28;20030;-71
2022/10/27 03:06:19;;;;;;;12.18;4.97;;;;;;;-143.48;93.56;79051.41;5014151;28;20025;-72
2022/10/27 03:08:44;;;;;;;14.02;5.00;;;;;;;-143.48;93.43;79055.38;5014074;28;20112;-71
2022/10/27 03:11:09;;;;;;;18.80;5.80;;;;;;;-143.48;93.47;79063.31;5013907;28;20026;-71
2022/10/27 03:13:34;;;;;;;15.15;5.32;;;;;;;-143.48;93.40;79061.34;5014041;28;20022;-72
2022/10/27 03:16:00;;;;;;;16.85;5.20;;;;;;;-143.48;93.40;79053.41;5014096;28;20030;-71
2022/10/27 03:18:25;;;;;;;15.80;5.07;;;;;;;-143.48;93.27;79057.38;5013864;28;20531;-71
2022/10/27 03:20:50;;;;;;;11.73;5.22;;;;;;;-143.48;93.27;79069.28;5013882;28;20025;-71
2022/10/27 03:23:16;;;;;;;15.52;5.80;;;;;;;-143.48;93.61;79061.34;5013850;28;20108;-71
2022/10/27 03:25:43;;;;;;;10.38;5.28;;;;;;;-143.48;93.61;79063.31;5013791;28;20037;-72
2022/10/27 03:28:12;;;;;;;12.38;5.20;;;;;;;-143.48;93.52;79063.31;5012734;28;20022;-73
2022/10/27 03:30:38;;;;;;;9.00;5.10;;;;;;;-143.48;93.61;79067.28;5013741;28;20040;-72
2022/10/27 03:33:04;;;;;;;13.60;5.60;;;;;;;-143.48;93.69;79071.25;5013467;28;20030;-71
2022/10/27 03:35:29;;;;;;;12.73;5.00;;;;;;;-143.48;93.60;79075.22;5012340;28;20030;-70
2022/10/27 03:37:56;;;;;;;11.93;5.28;;;;;;;-143.48;93.82;79081.16;5012280;28;20026;-70
2022/10/27 03:40:22;;;;;;;10.55;4.75;;;;;;;-143.48;93.97;79071.25;5013644;28;20563;-70
2022/10/27 03:42:47;;;;;;;14.02;5.00;;;;;;;-143.48;93.69;79067.28;5012233;28;20045;-70
2022/10/27 03:45:12;;;;;;;10.68;4.82;;;;;;;-143.48;93.45;79059.34;5012162;28;20053;-71
2022/10/27 03:47:37;;;;;;;11.52;4.90;;;;;;;-143.48;93.21;79051.41;5028671;28;20367;-70
2022/10/27 03:50:03;;;;;;;12.98;5.22;;;;;;;-143.48;92.90;79051.41;5013804;28;20108;-70
2022/10/27 03:52:28;;;;;;;11.48;4.82;;;;;;;-143.48;92.93;79059.34;5013387;28;20026;-70
2022/10/27 03:54:54;;;;;;;14.85;4.53;;;;;;;-143.48;92.93;79059.34;5013139;28;20121;-70
2022/10/27 03:57:19;;;;;;;14.70;4.93;;;;;;;-143.48;92.88;79055.38;5013570;28;20026;-70
2022/10/27 03:59:44;;;;;;;12.02;4.43;;;;;;;-143.48;92.60;79053.41;5013415;28;20386;-70
2022/10/27 04:02:11;;;;;;;17.40;4.97;;;;;;;-143.48;92.89;79057.38;5013315;28;20048;-71
2022/10/27 04:04:36;;;;;;;14.55;5.38;;;;;;;-143.48;92.86;79055.38;5013431;28;20109;-70
2022/10/27 04:07:01;;;;;;;10.93;4.65;;;;;;;-143.48;92.60;79059.34;5013305;28;20034;-70
2022/10/27 04:09:27;;;;;;;13.75;4.53;;;;;;;-143.48;92.52;79061.34;5013694;28;20033;-71
2022/10/27 04:11:52;;;;;;;15.15;4.50;;;;;;;-143.48;92.72;79067.28;5013095;28;20454;-70
2022/10/27 04:14:17;;;;;;;9.40;4.70;;;;;;;-143.48;92.82;79067.28;5013253;28;20091;-70
2022/10/27 04:16:43;;;;;;;12.52;4.60;;;;;;;-143.48;92.69;79067.28;5013243;28;20024;-70
2022/10/27 04:19:10;;;;;;;15.35;4.63;;;;;;;-143.48;92.63;79063.31;5011888;28;20030;-70
2022/10/27 04:21:35;;;;;;;10.15;4.50;;;;;;;-143.48;92.89;79079.19;5011940;28;20026;-70
2022/10/27 04:24:00;;;;;;;10.23;4.70;;;;;;;-143.48;92.90;79079.19;5013388;28;20283;-70
2022/10/27 04:26:26;;;;;;;8.93;4.60;;;;;;;-143.48;92.66;79077.19;5013215;28;20057;-72
2022/10/27 04:28:51;;;;;;;10.63;4.82;;;;;;;-143.48;92.83;79085.13;5013072;28;20049;-70
2022/10/27 04:31:16;;;;;;;11.90;4.80;;;;;;;-143.48;92.63;79083.16;5015271;28;20572;-71
2022/10/27 04:33:42;;;;;;;12.25;4.68;;;;;;;-143.48;92.42;79079.19;5016933;28;20030;-71
2022/10/27 04:36:07;;;;;;;13.30;4.80;;;;;;;-143.48;92.24;79081.16;5017000;28;20389;-72
2022/10/27 04:38:33;;;;;;;11.07;4.57;;;;;;;-143.48;92.34;79081.16;5016877;28;20026;-71
2022/10/27 04:40:59;;;;;;;8.55;4.28;;;;;;;-143.48;92.45;79089.09;5016743;28;20431;-72
2022/10/27 04:43:24;;;;;;;11.88;4.22;;;;;;;-143.48;92.36;79083.16;5016798;28;20551;-72
2022/10/27 04:45:50;;;;;;;11.25;4.30;;;;;;;-143.48;92.04;79077.19;5016838;28;20069;-72
2022/10/27 04:48:15;;;;;;;8.07;4.22;;;;;;;-143.48;91.78;79079.19;5016589;28;20018;-72
2022/10/27 04:50:40;;;;;;;14.10;3.95;;;;;;;-143.48;91.83;79075.22;5016459;28;20088;-72
2022/10/27 04:53:06;;;;;;;13.02;4.10;;;;;;;-143.48;92.11;79073.25;5031564;28;20032;-72
2022/10/27 04:55:32;;;;;;;12.02;3.85;;;;;;;-143.48;91.90;79061.34;5016660;28;20044;-72
2022/10/27 04:57:58;;;;;;;11.70;4.05;;;;;;;-143.48;91.21;79061.34;5031863;28;20018;-72
2022/10/27 05:00:24;;;;;;;10.30;3.78;;;;;;;-143.48;91.25;79061.34;5030796;28;20025;-71
2022/10/27 05:02:58;;;;;;;9.98;3.65;;;;;;;-143.48;90.82;79053.41;5033443;28;20030;-71
2022/10/27 05:05:25;;;;;;;11.23;3.70;;;;;;;-143.48;90.45;79041.50;5033283;28;20061;-71
2022/10/27 05:08:01;;;;;;;11.35;3.63;;;;;;;-143.48;89.83;79039.53;5017933;28;20026;-71
2022/10/27 05:10:28;;;;;;;10.50;3.65;;;;;;;-143.48;89.88;79041.50;5016773;28;20030;-70
2022/10/27 05:12:54;;;;;;;8.38;3.30;;;;;;;-143.48;89.41;79033.56;5013260;28;20022;-72
2022/10/27 05:15:19;;;;;;;10.38;3.33;;;;;;;-143.48;89.12;79037.53;5016268;28;20022;-72
2022/10/27 05:17:45;;;;;;;9.40;2.95;;;;;;;-143.48;89.12;79039.53;5015316;28;20049;-72
2022/10/27 05:20:10;;;;;;;9.23;3.08;;;;;;;-143.48;88.87;79029.59;5014235;28;20378;-72
2022/10/27 05:22:37;;;;;;;9.10;3.40;;;;;;;-143.48;88.54;79039.53;5014524;28;20025;-72
2022/10/27 05:25:02;;;;;;;9.77;3.50;;;;;;;-143.48;88.72;79035.56;5014060;28;20396;-72
2022/10/27 05:27:28;;;;;;;10.15;3.60;;;;;;;-143.48;88.01;79025.63;5015556;28;20029;-73
2022/10/27 05:29:53;;;;;;;10.35;3.13;;;;;;;-143.48;87.80;79027.63;5014422;28;20080;-72
2022/10/27 05:32:18;;;;;;;7.82;3.13;;;;;;;-143.48;87.85;79023.66;5042115;28;20033;-72
2022/10/27 05:34:44;;;;;;;6.78;3.13;;;;;;;-143.48;87.82;79029.59;5015984;28;20029;-72
2022/10/27 05:37:09;;;;;;;8.27;3.20;;;;;;;-143.48;87.66;79029.59;5015931;28;20313;-72
2022/10/27 05:39:35;;;;;;;5.85;3.00;;;;;;;-143.48;87.01;79013.72;5015842;28;20049;-71
2022/10/27 05:42:00;;;;;;;7.25;3.10;;;;;;;-143.48;86.48;79009.75;5014576;28;20033;-71
2022/10/27 05:44:25;;;;;;;8.95;2.72;;;;;;;-143.48;86.27;79007.78;5015728;28;20113;-72
2022/10/27 05:46:51;;;;;;;13.93;3.25;;;;;;;-143.48;85.75;79009.75;5015529;28;20030;-71
2022/10/27 05:49:16;;;;;;;5.85;2.70;;;;;;;-143.48;84.60;78987.94;5015613;28;20470;-72
2022/10/27 05:51:41;;;;;;;8.23;2.90;;;;;;;-143.48;84.90;79003.81;5031669;28;20125;-71
2022/10/27 05:54:06;;;;;;;9.43;3.20;;;;;;;-143.48;84.86;79003.81;5015373;28;20046;-71
2022/10/27 05:56:32;;;;;;;15.10;3.38;;;;;;;-143.48;84.55;79007.78;5013888;28;20018;-71
2022/10/27 05:58:57;;;;;;;12.32;3.08;;;;;;;-143.48;84.29;79003.81;5015461;28;20026;-71
2022/10/27 06:01:22;;;;;;;13.68;3.38;;;;;;;-143.48;83.99;78999.84;5013985;28;20093;-71
2022/10/27 06:03:48;;;;;;;8.40;2.80;;;;;;;-143.48;84.29;79009.75;5015414;28;20026;-71
2022/10/27 06:06:13;;;;;;;9.48;2.90;;;;;;;-143.48;84.06;79003.81;5013957;28;20029;-72
2022/10/27 06:08:38;;;;;;;6.97;2.70;;;;;;;-143.48;84.00;79007.78;5015240;28;20017;-71
2022/10/27 06:11:04;;;;;;;8.32;3.30;;;;;;;-143.48;84.11;79011.75;5015216;28;20022;-71
2022/10/27 06:13:29;;;;;;;9.43;3.20;;;;;;;-143.48;84.45;79007.78;5015087;28;20484;-72
2022/10/27 06:15:55;;;;;;;11.98;3.22;;;;;;;-143.48;84.24;79007.78;5034496;28;20089;-72
2022/10/27 06:18:20;;;;;;;10.98;3.10;;;;;;;-143.48;84.45;79015.72;5037268;28;20025;-71
2022/10/27 06:20:45;;;;;;;6.68;3.10;;;;;;;-143.48;84.45;79009.75;5030100;28;20029;-71
2022/10/27 06:23:11;;;;;;;7.05;2.78;;;;;;;-143.48;84.49;79011.75;5013950;28;20092;-71
2022/10/27 06:25:36;;;;;;;9.45;3.20;;;;;;;-143.48;84.47;79009.75;5015865;28;20049;-71
2022/10/27 06:28:02;;;;;;;12.70;3.38;;;;;;;-143.48;84.05;79003.81;5014933;28;20033;-72
2022/10/27 06:30:27;;;;;;;6.53;3.10;;;;;;;-143.48;83.85;79003.81;5014832;28;20025;-71
2022/10/27 06:32:52;;;;;;;6.80;3.00;;;;;;;-143.48;83.94;78993.91;5013632;28;20121;-73
2022/10/27 06:35:18;;;;;;;4.97;2.78;;;;;;;-143.48;83.82;79001.81;5014811;28;20101;-72
2022/10/27 06:37:45;;;;;;;8.77;3.25;;;;;;;-143.48;83.63;79003.81;5029948;28;20017;-72
2022/10/27 06:40:13;;;;;;;9.45;3.00;;;;;;;-143.48;83.69;78995.88;5028280;28;20473;-72
2022/10/27 06:42:39;;;;;;;11.25;3.22;;;;;;;-143.48;83.41;78989.94;5013635;28;20116;-71
2022/10/27 06:45:05;;;;;;;7.20;2.90;;;;;;;-143.48;82.70;78980.00;5013912;28;20104;-72
2022/10/27 06:47:30;;;;;;;10.70;2.95;;;;;;;-143.48;82.17;78970.09;5031824;28;20608;-71
2022/10/27 06:49:56;;;;;;;11.13;3.15;;;;;;;-143.48;82.07;78968.09;5023865;28;20029;-70
2022/10/27 06:52:21;;;;;;;7.88;3.30;;;;;;;-143.48;81.68;78972.06;5014294;28;20033;-72
2022/10/27 06:54:46;;;;;;;8.13;2.88;;;;;;;-143.48;81.13;78964.16;5012939;28;20042;-71
2022/10/27 06:57:12;;;;;;;7.55;3.08;;;;;;;-143.48;80.81;78950.25;5028637;28;20120;-72
2022/10/27 06:59:37;;;;;;;6.90;2.75;;;;;;;-143.48;79.87;78934.38;5013702;28;20022;-71
2022/10/27 07:02:03;;;;;;;7.63;2.95;;;;;;;-143.48;78.77;78924.47;5014631;28;20017;-72
2022/10/27 07:04:29;;;;;;;8.23;2.97;;;;;;;-143.48;77.92;78912.56;5014111;28;20076;-72
2022/10/27 07:06:54;;;;;;;5.43;2.80;;;;;;;-143.48;77.40;78910.59;5013276;28;20021;-72
2022/10/27 07:09:19;;;;;;;7.18;2.90;;;;;;;-143.48;76.71;78908.59;5014426;28;20030;-72
2022/10/27 07:11:44;;;;;;;6.38;2.58;;;;;;;-143.48;76.14;78900.66;5017664;28;20065;-72
2022/10/27 07:14:10;;;;;;;6.85;2.63;;;;;;;-143.48;75.89;78894.72;5015841;28;20462;-72
2022/10/27 07:16:35;;;;;;;6.40;2.50;;;;;;;-143.48;74.14;78878.84;5015643;28;20517;-72
2022/10/27 07:19:01;;;;;;;7.95;2.47;;;;;;;-143.48;73.48;78872.91;5015262;28;20527;-71
2022/10/27 07:21:27;;;;;;;5.68;2.50;;;;;;;-143.48;73.24;78882.81;5015699;28;20393;-71
2022/10/27 07:23:53;;;;;;;5.72;2.63;;;;;;;-143.48;72.65;78864.97;5014682;28;20108;-71
2022/10/27 07:26:18;;;;;;;9.90;2.70;;;;;;;-143.48;72.71;78872.91;5014232;28;20441;-71
2022/10/27 07:28:43;;;;;;;11.88;3.40;;;;;;;-143.48;72.54;78857.03;5015307;28;20420;-71
2022/10/27 07:31:09;;;;;;;8.60;3.00;;;;;;;-143.48;72.03;78837.19;5016865;28;20053;-71
2022/10/27 07:33:34;;;;;;;6.68;2.72;;;;;;;-143.48;72.27;78868.94;5019540;28;20461;-70
2022/10/27 07:35:59;;;;;;;8.15;2.60;;;;;;;-143.48;71.96;78837.19;5016856;28;20076;-71
2022/10/27 07:38:25;;;;;;;8.80;2.90;;;;;;;-143.48;71.20;78829.25;5012809;28;20025;-69
2022/10/27 07:40:50;;;;;;;8.75;2.92;;;;;;;-143.48;68.53;78730.09;5014747;28;20401;-71
2022/10/27 07:43:15;;;;;;;6.70;2.53;;;;;;;-143.48;65.43;78674.56;5013491;28;20470;-71
2022/10/27 07:45:41;;;;;;;5.22;2.67;;;;;;;-143.48;63.09;78591.25;5012039;28;20113;-70
2022/10/27 07:48:12;;;;;;;6.90;2.88;;;;;;;-143.48;64.28;78680.50;5011106;28;20144;-69
2022/10/27 07:50:38;;;;;;;8.45;2.50;;;;;;;-143.48;63.84;78630.94;5012215;28;20087;-70
2022/10/27 07:53:04;;;;;;;7.30;2.20;;;;;;;-143.48;53.20;78248.16;5013427;28;20380;-70
2022/10/27 07:55:31;;;;;;;9.73;2.35;;;;;;;-143.48;47.83;78055.81;5013520;28;20108;-70
2022/10/27 07:58:02;;;;;;;4.72;2.25;;;;;;;-143.48;48.72;78178.75;5013065;28;20389;-70
2022/10/27 08:00:28;;;;;;;4.97;2.08;;;;;;;-143.48;48.47;78127.19;5010107;28;20053;-70
2022/10/27 08:02:53;;;;;;;5.47;2.10;;;;;;;-143.48;49.36;78242.22;5011558;28;20418;-70
2022/10/27 08:05:19;;;;;;;7.82;2.10;;;;;;;-143.48;52.34;78305.66;5011527;28;20061;-71
2022/10/27 08:07:44;;;;;;;5.03;2.28;;;;;;;-143.48;51.22;78311.63;5013924;28;20022;-71
2022/10/27 08:10:09;;;;;;;6.60;2.42;;;;;;;-143.48;57.63;78551.59;5015694;28;20109;-71
2022/10/27 08:12:40;;;;;;;4.90;1.70;;;;;;;-143.48;59.34;78565.47;5015460;28;20473;-71
2022/10/27 08:15:07;;;;;;;6.07;1.90;;;;;;;-143.48;60.07;78617.03;5015644;28;20055;-71
2022/10/27 08:17:32;;;;;;;7.15;2.47;;;;;;;-143.48;60.90;78623.00;5017114;28;20499;-70
2022/10/27 08:19:57;;;;;;;4.70;2.10;;;;;;;-143.48;60.59;78609.09;5017110;28;20026;-71
2022/10/27 08:22:23;;;;;;;4.32;1.75;;;;;;;-143.48;60.29;78591.25;5016126;28;20018;-71
2022/10/27 08:24:48;;;;;;;7.32;2.10;;;;;;;-143.48;60.17;78587.28;5017041;28;20026;-71
2022/10/27 08:27:13;;;;;;;4.93;1.88;;;;;;;-143.48;59.26;78591.25;5032244;28;20117;-71
2022/10/27 08:29:39;;;;;;;9.38;2.53;;;;;;;-143.48;59.06;78535.72;5017119;28;20088;-71
2022/10/27 08:32:04;;;;;;;13.65;2.28;;;;;;;-143.48;58.42;78531.75;5016834;28;20088;-70
2022/10/27 08:34:29;;;;;;;10.65;2.25;;;;;;;-143.48;57.41;78478.22;5016079;28;20022;-70
2022/10/27 08:36:55;;;;;;;8.93;2.20;;;;;;;-143.48;54.84;78412.75;5017027;28;20022;-71
2022/10/27 08:39:20;;;;;;;4.82;1.73;;;;;;;-143.48;53.02;78299.72;5015606;28;20022;-70
2022/10/27 08:42:14;;;;;;;3.22;1.40;;;;;;;-143.48;52.60;78351.28;5016638;28;20018;-72
2022/10/27 08:44:49;;;;;;;5.13;1.60;;;;;;;-143.48;51.64;78277.91;5016920;28;20029;-71
2022/10/27 08:47:19;;;;;;;4.53;1.40;;;;;;;-143.48;51.95;78357.22;5016823;28;20053;-71
2022/10/27 08:49:50;;;;;;;5.53;1.60;;;;;;;-143.48;52.69;78369.13;5016637;28;20021;-70
2022/10/27 08:52:15;;;;;;;7.50;1.73;;;;;;;-143.48;50.85;78277.91;5016808;28;20492;-71
2022/10/27 08:54:46;;;;;;;3.20;1.37;;;;;;;-143.48;49.29;78230.31;5015103;28;20081;-70
2022/10/27 08:57:22;;;;;;;6.80;1.85;;;;;;;-143.48;46.37;78059.75;5015245;28;20292;-72
2022/10/27 08:59:47;;;;;;;3.33;1.30;;;;;;;-143.48;44.55;77970.53;5015150;28;20029;-71
2022/10/27 09:02:55;;;;;;;3.20;1.27;;;;;;;-143.48;43.68;77980.44;5016425;28;20432;-71
2022/10/27 09:05:27;;;;;;;3.22;1.30;;;;;;;-143.48;45.58;78105.38;5016785;28;20025;-71
2022/10/27 09:08:17;;;;;;;4.05;1.40;;;;;;;-143.48;46.44;78077.63;5015004;28;20034;-71
2022/10/27 09:10:44;;;;;;;7.65;1.40;;;;;;;-143.48;45.88;78121.25;5016205;28;20453;-71
2022/10/27 09:13:24;;;;;;;3.53;1.20;;;;;;;-143.48;48.96;78301.72;5015029;28;20018;-70
2022/10/27 09:15:54;;;;;;;4.20;1.40;;;;;;;-143.48;50.32;78353.28;5016282;28;20512;-70
2022/10/27 09:18:26;;;;;;;9.45;1.42;;;;;;;-143.48;51.58;78408.81;5015019;28;20080;-71
2022/10/27 09:20:55;;;;;;;5.45;1.42;;;;;;;-143.48;51.80;78392.94;5014900;28;20413;-71
2022/10/27 09:23:36;;;;;;;3.30;1.35;;;;;;;-143.48;51.53;78392.94;5016279;28;20034;-70
2022/10/27 09:26:02;;;;;;;4.20;1.27;;;;;;;-143.48;49.89;78353.28;5015055;28;20025;-71
2022/10/27 09:28:35;;;;;;;7.80;1.55;;;;;;;-143.48;51.05;78396.91;5015925;28;20164;-70
2022/10/27 09:31:03;;;;;;;8.80;1.42;;;;;;;-143.48;51.01;78392.94;5014970;28;20041;-71
2022/10/27 09:33:32;;;;;;;4.05;1.30;;;;;;;-143.48;50.13;78343.34;5015992;28;20026;-71
2022/10/27 09:35:58;;;;;;;5.63;1.30;;;;;;;-143.48;48.08;78250.16;5013251;28;20045;-71
2022/10/27 09:38:26;;;;;;;5.82;1.45;;;;;;;-143.48;47.00;78198.59;5015729;28;20042;-71
2022/10/27 09:40:52;;;;;;;3.42;1.20;;;;;;;-143.48;48.43;78293.78;5015694;28;20014;-70
2022/10/27 09:43:22;;;;;;;7.65;1.60;;;;;;;-143.48;50.63;78371.13;5015594;28;20389;-71
2022/10/27 09:45:54;;;;;;;4.63;1.42;;;;;;;-143.48;50.97;78394.91;5014924;28;20111;-70
2022/10/27 09:48:23;;;;;;;4.90;1.80;;;;;;;-143.48;51.39;78392.94;5015534;28;20022;-70
2022/10/27 09:51:33;;;;;;;4.55;1.38;;;;;;;-143.48;49.69;78305.66;5015515;28;20022;-70
2022/10/27 09:54:02;;;;;;;9.27;1.85;;;;;;;-143.48;46.77;78123.22;5004253;28;20046;-70
2022/10/27 09:56:32;;;;;;;5.10;1.70;;;;;;;-143.48;46.37;78097.44;5013417;28;20515;-71
2022/10/27 09:59:01;;;;;;;3.80;1.80;;;;;;;-143.48;44.80;78047.88;5029602;28;20125;-70
2022/10/27 10:01:38;;;;;;;5.65;2.00;;;;;;;-143.48;42.15;77831.72;5013900;28;20022;-71
2022/10/27 10:04:32;;;;;;;4.80;1.88;;;;;;;-143.48;40.54;77766.28;5014751;28;20033;-71
2022/10/27 10:07:03;;;;;;;5.20;1.52;;;;;;;-143.48;44.38;78043.91;5016102;28;20029;-70
2022/10/27 10:09:32;;;;;;;6.05;1.70;;;;;;;-143.48;45.55;78065.72;5013875;28;20025;-71
2022/10/27 10:12:18;;;;;;;7.82;1.90;;;;;;;-143.48;48.20;78188.66;5015245;28;20030;-71
2022/10/27 10:14:43;;;;;;;4.10;1.65;;;;;;;-143.48;49.60;78240.22;5013647;28;20028;-71
2022/10/27 10:17:24;;;;;;;4.88;2.00;;;;;;;-143.48;50.63;78301.72;5012959;28;20025;-71
2022/10/27 10:19:51;;;;;;;4.13;1.60;;;;;;;-143.48;50.99;78299.72;5014887;28;20042;-70
2022/10/27 10:22:24;;;;;;;5.68;1.90;;;;;;;-143.48;51.98;78331.44;5014925;28;20411;-70
2022/10/27 10:24:50;;;;;;;7.88;1.92;;;;;;;-143.48;52.34;78351.28;5013628;28;20224;-70
2022/10/27 10:27:33;;;;;;;5.57;2.13;;;;;;;-143.48;53.07;78369.13;5029946;28;20030;-70
2022/10/27 10:30:02;;;;;;;7.43;2.05;;;;;;;-143.48;53.28;78371.13;5013010;28;20021;-70
2022/10/27 10:32:35;;;;;;;8.65;2.08;;;;;;;-143.48;53.89;78381.03;5014821;28;20095;-70
2022/10/27 10:35:02;;;;;;;5.25;1.90;;;;;;;-143.48;54.02;78386.97;5013356;28;20033;-71
2022/10/27 10:37:45;;;;;;;8.52;1.98;;;;;;;-143.48;54.22;78385.00;5014631;28;20030;-70
2022/10/27 10:40:13;;;;;;;4.32;1.77;;;;;;;-143.48;53.99;78375.09;5016593;28;20026;-70
2022/10/27 10:43:00;;;;;;;4.75;1.90;;;;;;;-143.48;54.39;78398.88;5014823;28;20542;-70
2022/10/27 10:45:26;;;;;;;5.65;1.80;;;;;;;-143.48;54.19;78373.09;5014207;28;20033;-70
2022/10/27 10:48:05;;;;;;;8.88;1.73;;;;;;;-143.48;54.74;78381.03;5014384;28;20045;-71
2022/10/27 10:50:43;;;;;;;9.38;1.90;;;;;;;-143.48;54.15;78365.16;5014801;28;20032;-69
2022/10/27 10:53:20;;;;;;;5.05;1.73;;;;;;;-143.48;53.85;78345.34;5014117;28;20030;-70
2022/10/27 10:55:46;;;;;;;4.65;1.73;;;;;;;-143.48;54.15;78329.47;5013091;28;20029;-71
2022/10/27 10:58:16;;;;;;;6.60;2.10;;;;;;;-143.48;53.13;78307.66;5014293;28;20030;-70
2022/10/27 11:00:57;;;;;;;8.13;1.80;;;;;;;-143.48;53.21;78321.53;5012919;28;20056;-69
2022/10/27 11:03:26;;;;;;;5.95;1.98;;;;;;;-143.48;53.75;78353.28;5012942;28;20032;-70
2022/10/27 11:05:55;;;;;;;6.65;1.70;;;;;;;-143.48;53.91;78347.31;5014027;28;20025;-70
2022/10/27 11:08:25;;;;;;;5.75;1.90;;;;;;;-143.48;54.67;78357.22;5012918;28;20026;-69
2022/10/27 11:10:54;;;;;;;6.88;1.80;;;;;;;-143.48;54.66;78343.34;5029161;28;20113;-71
2022/10/27 11:13:24;;;;;;;8.02;2.17;;;;;;;-143.48;54.49;78335.41;5013983;28;20180;-70
2022/10/27 11:15:54;;;;;;;7.50;1.92;;;;;;;-143.48;54.77;78335.41;5012594;28;20028;-70
2022/10/27 11:18:25;;;;;;;5.82;1.70;;;;;;;-143.48;54.90;78335.41;5013032;28;20030;-71
2022/10/27 11:21:07;;;;;;;6.28;1.90;;;;;;;-143.48;54.74;78319.56;5012379;28;20072;-70
2022/10/27 11:23:39;;;;;;;7.20;1.83;;;;;;;-143.48;51.88;78186.69;5013973;28;20484;-72